Terminal Aerodrome Forecast
Issued by NWS

Home | Current Version | Previous Version | Graphics & Text | Print | Product List | Glossary On
Versions: 1 2 3 4 5 6 7 8 9 10 11 12 13 14 15 16 17 18
409
FTUS43 KICT 300520
TAFHUT
TAF
KHUT 300520Z 3006/0106 10010KT P6SM VCSH OVC005
     FM300800 30010KT 5SM BR OVC008
     FM301600 27014KT P6SM SCT035
     FM302000 26015G23KT P6SM SCT050
     FM010200 27014KT P6SM SCT150=

USA.gov is the U.S. government's official web portal to all federal, state and local government web resources and services.